Photometre #79[Standard_N] Nicosia AOT

File : 20200925_79.hum

25/09/2020,04:21:14,TEMP=21.3,BA=5.60,STAT.A=Abs.,ExtBa=15.25
25/09/2020,04:24:23,TEMP=21.8,BA=5.60,STAT.A=Abs.,ExtBa=15.24
25/09/2020,04:28:03,TEMP=22.1,BA=5.60,STAT.A=Abs.,ExtBa=15.23
25/09/2020,04:32:25,TEMP=22.3,BA=5.60,STAT.A=Abs.,ExtBa=15.22
25/09/2020,04:37:41,TEMP=22.8,BA=5.60,STAT.A=Abs.,ExtBa=15.24
25/09/2020,04:44:09,TEMP=23.6,BA=5.60,STAT.A=Abs.,ExtBa=15.26
25/09/2020,04:52:18,TEMP=24.5,BA=5.60,STAT.B=Abs.,ExtBa=15.27
25/09/2020,04:59:04,TEMP=25.6,BA=5.60,STAT.A=Abs.,ExtBa=14.42
25/09/2020,05:00:46,TEMP=25.8,BA=5.48,STAT.A=Abs.,ExtBa=14.48
25/09/2020,05:05:29,TEMP=25.8,BA=5.48,STAT.A=Abs.,ExtBa=14.77
25/09/2020,05:11:03,TEMP=26.3,BA=5.60,STAT.A=Abs.,ExtBa=15.01
25/09/2020,05:17:26,TEMP=26.8,BA=5.60,STAT.C=Abs.,ExtBa=15.17
25/09/2020,05:28:12,TEMP=28.0,BA=5.48,STAT.A=Abs.,ExtBa=14.25
25/09/2020,05:33:32,TEMP=28.1,BA=5.56,STAT.A=Abs.,ExtBa=14.69
25/09/2020,05:43:55,TEMP=29.0,BA=5.60,STAT.A=Abs.,ExtBa=15.16
25/09/2020,05:44:18,STAT.p
25/09/2020,05:56:34,TEMP=30.3,BA=5.60,STAT.A=Abs.,ExtBa=15.25
25/09/2020,06:12:26,TEMP=31.3,BA=5.60,STAT.B=Abs.,ExtBa=15.25
25/09/2020,06:23:27,TEMP=31.8,BA=5.52,STAT.D=Abs.,ExtBa=14.92
25/09/2020,06:38:29,TEMP=32.2,BA=5.56,STAT.F,ExtBa=15.23
25/09/2020,06:53:37,TEMP=32.8,BA=5.52,STAT.b=Abs.
25/09/2020,07:08:27,TEMP=34.1,BA=5.52,STAT.D=Abs.,ExtBa=15.21
25/09/2020,07:23:27,TEMP=33.8,BA=5.48,STAT.D=Abs.,ExtBa=15.19
25/09/2020,07:38:29,TEMP=34.4,BA=5.48,STAT.F,ExtBa=15.18
25/09/2020,07:53:38,TEMP=34.3,BA=5.48,STAT.b=Abs.
25/09/2020,08:08:27,TEMP=34.3,BA=5.48,STAT.D=Abs.,ExtBa=15.16
25/09/2020,08:23:28,TEMP=35.5,BA=5.44,STAT.D=Abs.,ExtBa=15.16
25/09/2020,08:38:29,TEMP=36.2,BA=5.44,STAT.F,ExtBa=15.16
25/09/2020,08:53:28,TEMP=36.0,BA=5.44,STAT.D=Abs.,ExtBa=14.89
25/09/2020,09:08:28,TEMP=36.4,BA=5.44,STAT.D=Abs.,ExtBa=15.16
25/09/2020,09:23:28,TEMP=37.8,BA=5.44,STAT.D=Abs.,ExtBa=15.14
25/09/2020,09:38:29,TEMP=38.2,BA=5.40,STAT.F,ExtBa=15.14
25/09/2020,09:53:28,TEMP=37.3,BA=5.40,STAT.D=Abs.,ExtBa=14.86
25/09/2020,10:08:28,TEMP=36.0,BA=5.40,STAT.D=Abs.,ExtBa=15.13
25/09/2020,10:23:28,TEMP=33.3,BA=5.40,STAT.D=Abs.,ExtBa=15.13
25/09/2020,10:38:29,TEMP=33.3,BA=5.40,STAT.F,ExtBa=15.13
25/09/2020,10:53:28,TEMP=33.6,BA=5.40,STAT.D=Abs.,ExtBa=14.83
25/09/2020,11:08:28,TEMP=33.5,BA=5.44,STAT.D=Abs.,ExtBa=15.16
25/09/2020,11:23:28,TEMP=32.8,BA=5.48,STAT.D=Abs.,ExtBa=15.15
25/09/2020,11:38:29,TEMP=32.4,BA=5.48,STAT.F,ExtBa=15.16
25/09/2020,11:53:27,TEMP=33.1,BA=5.44,STAT.D=Abs.,ExtBa=14.86
25/09/2020,12:08:27,TEMP=32.8,BA=5.48,STAT.D=Abs.,ExtBa=15.16
25/09/2020,12:23:27,TEMP=33.1,BA=5.52,STAT.D=Abs.,ExtBa=15.16
25/09/2020,12:38:29,TEMP=32.5,BA=5.48,STAT.F,ExtBa=15.15
25/09/2020,12:53:27,TEMP=32.5,BA=5.48,STAT.D=Abs.,ExtBa=15.15
25/09/2020,13:04:30,TEMP=32.2,BA=5.52,STAT.B=Abs.,ExtBa=15.18
25/09/2020,13:20:22,TEMP=32.7,BA=5.52,STAT.A=Abs.,ExtBa=15.11
25/09/2020,13:33:00,TEMP=32.5,BA=5.52,STAT.A=Abs.,ExtBa=15.17
25/09/2020,13:43:24,TEMP=31.7,BA=5.52,STAT.A=Abs.,ExtBa=15.16
25/09/2020,13:52:05,TEMP=31.0,BA=5.52,STAT.A=Abs.,ExtBa=15.15
25/09/2020,13:59:30,TEMP=30.1,BA=5.52,STAT.C=Abs.,ExtBa=15.14
25/09/2020,14:07:33,TEMP=30.0,BA=5.40,STAT.A=Abs.,ExtBa=14.45
25/09/2020,14:11:27,TEMP=29.5,BA=5.48,STAT.A=Abs.,ExtBa=14.77
25/09/2020,14:16:22,TEMP=29.5,BA=5.48,STAT.A=Abs.,ExtBa=14.99
25/09/2020,14:20:44,TEMP=29.6,BA=5.52,STAT.A=Abs.,ExtBa=15.08
25/09/2020,14:24:38,TEMP=29.5,BA=5.52,STAT.B=Abs.,ExtBa=15.09
25/09/2020,14:32:47,TEMP=28.8,BA=5.56,STAT.A=Abs.,ExtBa=15.18
25/09/2020,14:39:15,TEMP=28.5,BA=5.56,STAT.A=Abs.,ExtBa=15.17
25/09/2020,14:44:31,TEMP=28.5,BA=5.40,STAT.A=Abs.,ExtBa=15.16
25/09/2020,14:48:52,TEMP=28.6,BA=5.40,STAT.A=Abs.,ExtBa=15.16
25/09/2020,14:52:32,TEMP=28.6,BA=5.40,STAT.A=Abs.,ExtBa=15.15
25/09/2020,14:55:41,TEMP=28.6,BA=5.40,STAT.A=Abs.,ExtBa=15.14